sensor_id;sensor_type;location;lat;lon;timestamp;pressure;altitude;pressure_sealevel;temperature;humidity
71996;BME280;59862;47.732;7.346;2023-05-29T00:02:00;97899.73;;;15.56;55.85
71996;BME280;59862;47.732;7.346;2023-05-29T00:04:27;97899.64;;;15.53;55.94
71996;BME280;59862;47.732;7.346;2023-05-29T00:06:54;97905.69;;;15.49;55.52
71996;BME280;59862;47.732;7.346;2023-05-29T00:09:22;97904.14;;;15.50;55.54
71996;BME280;59862;47.732;7.346;2023-05-29T00:11:49;97903.56;;;15.57;55.83
71996;BME280;59862;47.732;7.346;2023-05-29T00:14:19;97909.67;;;15.62;55.39
71996;BME280;59862;47.732;7.346;2023-05-29T00:16:48;97907.42;;;15.59;55.61
71996;BME280;59862;47.732;7.346;2023-05-29T00:19:16;97910.94;;;15.59;55.61
71996;BME280;59862;47.732;7.346;2023-05-29T00:21:44;97910.28;;;15.64;55.49
71996;BME280;59862;47.732;7.346;2023-05-29T00:24:14;97908.19;;;15.66;55.83
71996;BME280;59862;47.732;7.346;2023-05-29T00:26:42;97904.72;;;15.59;56.08
71996;BME280;59862;47.732;7.346;2023-05-29T00:29:10;97906.72;;;15.54;55.57
71996;BME280;59862;47.732;7.346;2023-05-29T00:31:37;97904.84;;;15.55;56.24
71996;BME280;59862;47.732;7.346;2023-05-29T00:34:05;97900.47;;;15.54;56.45
71996;BME280;59862;47.732;7.346;2023-05-29T00:36:34;97905.56;;;15.53;56.11
71996;BME280;59862;47.732;7.346;2023-05-29T00:39:01;97903.83;;;15.49;56.47
71996;BME280;59862;47.732;7.346;2023-05-29T00:41:29;97911.23;;;15.45;56.85
71996;BME280;59862;47.732;7.346;2023-05-29T00:43:56;97915.09;;;15.40;57.22
71996;BME280;59862;47.732;7.346;2023-05-29T00:46:24;97906.30;;;15.29;57.31
71996;BME280;59862;47.732;7.346;2023-05-29T00:48:52;97868.48;;;15.00;57.40
71996;BME280;59862;47.732;7.346;2023-05-29T00:51:20;97908.20;;;15.22;57.27
71996;BME280;59862;47.732;7.346;2023-05-29T00:53:49;97903.02;;;15.20;57.30
71996;BME280;59862;47.732;7.346;2023-05-29T00:56:18;97904.56;;;15.18;57.56
71996;BME280;59862;47.732;7.346;2023-05-29T00:58:51;97900.95;;;15.15;57.37
71996;BME280;59862;47.732;7.346;2023-05-29T01:01:19;97899.41;;;15.10;57.57
71996;BME280;59862;47.732;7.346;2023-05-29T01:03:53;97900.27;;;15.04;57.74
71996;BME280;59862;47.732;7.346;2023-05-29T01:06:21;97903.41;;;14.95;58.15
71996;BME280;59862;47.732;7.346;2023-05-29T01:08:49;97901.89;;;14.90;57.93
71996;BME280;59862;47.732;7.346;2023-05-29T01:11:24;97906.02;;;14.92;58.40
71996;BME280;59862;47.732;7.346;2023-05-29T01:13:50;97903.92;;;14.94;57.92
71996;BME280;59862;47.732;7.346;2023-05-29T01:16:24;97908.94;;;14.91;58.17
71996;BME280;59862;47.732;7.346;2023-05-29T01:19:10;97915.59;;;14.88;58.19
71996;BME280;59862;47.732;7.346;2023-05-29T01:22:01;97906.03;;;14.86;58.29
71996;BME280;59862;47.732;7.346;2023-05-29T01:27:31;97907.73;;;14.80;58.36
71996;BME280;59862;47.732;7.346;2023-05-29T01:30:01;97907.34;;;14.70;58.42
71996;BME280;59862;47.732;7.346;2023-05-29T01:32:31;97902.75;;;14.71;58.75
71996;BME280;59862;47.732;7.346;2023-05-29T01:34:59;97914.52;;;14.67;58.35
71996;BME280;59862;47.732;7.346;2023-05-29T01:37:26;97912.02;;;14.72;58.28
71996;BME280;59862;47.732;7.346;2023-05-29T01:39:54;97920.41;;;14.73;58.60
71996;BME280;59862;47.732;7.346;2023-05-29T01:42:22;97912.31;;;14.73;58.21
71996;BME280;59862;47.732;7.346;2023-05-29T01:44:50;97911.90;;;14.76;58.12
71996;BME280;59862;47.732;7.346;2023-05-29T01:47:18;97906.79;;;14.77;57.85
71996;BME280;59862;47.732;7.346;2023-05-29T01:49:48;97911.16;;;14.78;57.89
71996;BME280;59862;47.732;7.346;2023-05-29T01:52:17;97912.00;;;14.79;58.31
71996;BME280;59862;47.732;7.346;2023-05-29T01:54:45;97905.97;;;14.83;58.22
71996;BME280;59862;47.732;7.346;2023-05-29T01:57:13;97909.48;;;14.77;58.00
71996;BME280;59862;47.732;7.346;2023-05-29T01:59:41;97907.73;;;14.80;57.58
71996;BME280;59862;47.732;7.346;2023-05-29T02:02:09;97907.31;;;14.83;57.79
71996;BME280;59862;47.732;7.346;2023-05-29T02:04:39;97905.31;;;14.81;57.49
71996;BME280;59862;47.732;7.346;2023-05-29T02:07:06;97904.80;;;14.82;57.28
71996;BME280;59862;47.732;7.346;2023-05-29T02:09:35;97904.61;;;14.83;57.47
71996;BME280;59862;47.732;7.346;2023-05-29T02:12:03;97903.33;;;14.86;57.27
71996;BME280;59862;47.732;7.346;2023-05-29T02:14:31;97905.97;;;14.83;57.32
71996;BME280;59862;47.732;7.346;2023-05-29T02:16:59;97903.67;;;14.80;57.64
71996;BME280;59862;47.732;7.346;2023-05-29T02:19:28;97906.05;;;14.79;57.65
71996;BME280;59862;47.732;7.346;2023-05-29T02:21:55;97910.84;;;14.77;57.92
71996;BME280;59862;47.732;7.346;2023-05-29T02:24:23;97905.14;;;14.76;58.25
71996;BME280;59862;47.732;7.346;2023-05-29T02:26:50;97909.09;;;14.74;58.28
71996;BME280;59862;47.732;7.346;2023-05-29T02:29:18;97913.48;;;14.68;58.49
71996;BME280;59862;47.732;7.346;2023-05-29T02:31:45;97917.84;;;14.63;58.69
71996;BME280;59862;47.732;7.346;2023-05-29T02:34:13;97923.66;;;14.60;58.43
71996;BME280;59862;47.732;7.346;2023-05-29T02:36:40;97927.71;;;14.53;58.62
71996;BME280;59862;47.732;7.346;2023-05-29T02:39:08;97919.44;;;14.48;58.91
71996;BME280;59862;47.732;7.346;2023-05-29T02:41:36;97916.84;;;14.44;58.93
71996;BME280;59862;47.732;7.346;2023-05-29T02:44:03;97916.31;;;14.38;58.85
71996;BME280;59862;47.732;7.346;2023-05-29T02:46:31;97913.94;;;14.32;59.27
71996;BME280;59862;47.732;7.346;2023-05-29T02:48:58;97911.86;;;14.34;59.37
71996;BME280;59862;47.732;7.346;2023-05-29T02:51:25;97911.97;;;14.30;59.53
71996;BME280;59862;47.732;7.346;2023-05-29T02:53:54;97904.17;;;14.25;59.15
71996;BME280;59862;47.732;7.346;2023-05-29T02:56:21;97908.41;;;14.17;59.97
71996;BME280;59862;47.732;7.346;2023-05-29T02:58:51;97908.41;;;14.17;59.61
71996;BME280;59862;47.732;7.346;2023-05-29T03:01:18;97910.09;;;14.18;59.63
71996;BME280;59862;47.732;7.346;2023-05-29T03:03:46;97909.36;;;14.20;59.69
71996;BME280;59862;47.732;7.346;2023-05-29T03:06:13;97909.25;;;14.11;59.78
71996;BME280;59862;47.732;7.346;2023-05-29T03:08:42;97912.89;;;14.07;60.15
71996;BME280;59862;47.732;7.346;2023-05-29T03:11:12;97914.02;;;14.09;60.18
71996;BME280;59862;47.732;7.346;2023-05-29T03:13:41;97908.00;;;14.07;60.40
71996;BME280;59862;47.732;7.346;2023-05-29T03:16:08;97906.55;;;14.04;60.14
71996;BME280;59862;47.732;7.346;2023-05-29T03:18:36;97913.91;;;14.00;60.33
71996;BME280;59862;47.732;7.346;2023-05-29T03:21:04;97905.70;;;13.97;60.50
71996;BME280;59862;47.732;7.346;2023-05-29T03:23:33;97914.13;;;13.92;60.63
71996;BME280;59862;47.732;7.346;2023-05-29T03:26:02;97909.23;;;13.85;60.76
71996;BME280;59862;47.732;7.346;2023-05-29T03:28:30;97907.27;;;13.83;60.99
71996;BME280;59862;47.732;7.346;2023-05-29T03:30:58;97905.50;;;13.73;60.91
71996;BME280;59862;47.732;7.346;2023-05-29T03:33:25;97909.64;;;13.68;61.27
71996;BME280;59862;47.732;7.346;2023-05-29T03:35:52;97908.48;;;13.67;61.45
71996;BME280;59862;47.732;7.346;2023-05-29T03:38:20;97916.16;;;13.63;61.46
71996;BME280;59862;47.732;7.346;2023-05-29T03:40:48;97921.05;;;13.64;61.56
71996;BME280;59862;47.732;7.346;2023-05-29T03:43:15;97912.52;;;13.60;61.75
71996;BME280;59862;47.732;7.346;2023-05-29T03:45:43;97909.30;;;13.61;61.98
71996;BME280;59862;47.732;7.346;2023-05-29T03:48:10;97918.33;;;13.57;61.67
71996;BME280;59862;47.732;7.346;2023-05-29T03:50:38;97903.06;;;13.54;62.01
71996;BME280;59862;47.732;7.346;2023-05-29T03:53:05;97911.89;;;13.58;61.84
71996;BME280;59862;47.732;7.346;2023-05-29T03:55:33;97910.44;;;13.62;61.92
71996;BME280;59862;47.732;7.346;2023-05-29T03:58:00;97913.86;;;13.60;62.15
71996;BME280;59862;47.732;7.346;2023-05-29T04:00:28;97913.86;;;13.60;62.13
71996;BME280;59862;47.732;7.346;2023-05-29T04:02:56;97923.00;;;13.59;62.11
71996;BME280;59862;47.732;7.346;2023-05-29T04:05:24;97914.17;;;13.55;62.26
71996;BME280;59862;47.732;7.346;2023-05-29T04:07:52;97917.38;;;13.54;62.24
71996;BME280;59862;47.732;7.346;2023-05-29T04:10:20;97926.09;;;13.56;62.38
71996;BME280;59862;47.732;7.346;2023-05-29T04:12:47;97927.77;;;13.57;62.54
71996;BME280;59862;47.732;7.346;2023-05-29T04:15:14;97932.83;;;13.56;62.69
71996;BME280;59862;47.732;7.346;2023-05-29T04:17:42;97936.66;;;13.58;62.65
71996;BME280;59862;47.732;7.346;2023-05-29T04:20:10;97939.47;;;13.60;62.47
71996;BME280;59862;47.732;7.346;2023-05-29T04:22:38;97942.06;;;13.64;62.74
71996;BME280;59862;47.732;7.346;2023-05-29T04:25:06;97948.52;;;13.63;62.49
71996;BME280;59862;47.732;7.346;2023-05-29T04:27:34;97952.23;;;13.62;62.88
71996;BME280;59862;47.732;7.346;2023-05-29T04:30:06;97955.27;;;13.70;62.79
71996;BME280;59862;47.732;7.346;2023-05-29T04:32:34;97954.04;;;13.73;62.65
71996;BME280;59862;47.732;7.346;2023-05-29T04:35:02;97959.55;;;13.75;62.92
71996;BME280;59862;47.732;7.346;2023-05-29T04:37:30;97965.98;;;13.81;62.98
71996;BME280;59862;47.732;7.346;2023-05-29T04:40:00;97967.13;;;13.89;62.61
71996;BME280;59862;47.732;7.346;2023-05-29T04:42:28;97973.35;;;13.89;62.25
71996;BME280;59862;47.732;7.346;2023-05-29T04:44:57;97978.97;;;13.88;62.29
71996;BME280;59862;47.732;7.346;2023-05-29T04:47:24;97983.02;;;13.94;62.27
71996;BME280;59862;47.732;7.346;2023-05-29T04:49:53;97976.69;;;13.98;62.32
71996;BME280;59862;47.732;7.346;2023-05-29T04:52:21;97983.33;;;14.02;62.18
71996;BME280;59862;47.732;7.346;2023-05-29T04:54:48;97982.31;;;14.03;61.92
71996;BME280;59862;47.732;7.346;2023-05-29T04:57:16;97978.38;;;14.05;61.95
71996;BME280;59862;47.732;7.346;2023-05-29T04:59:43;97980.13;;;14.09;62.01
71996;BME280;59862;47.732;7.346;2023-05-29T05:02:11;97979.08;;;14.16;62.12
71996;BME280;59862;47.732;7.346;2023-05-29T05:04:38;97983.14;;;14.23;61.58
71996;BME280;59862;47.732;7.346;2023-05-29T05:07:06;97987.41;;;14.28;61.70
71996;BME280;59862;47.732;7.346;2023-05-29T05:09:33;97996.05;;;14.34;61.37
71996;BME280;59862;47.732;7.346;2023-05-29T05:12:01;97996.67;;;14.36;61.17
71996;BME280;59862;47.732;7.346;2023-05-29T05:14:29;98005.61;;;14.36;61.33
71996;BME280;59862;47.732;7.346;2023-05-29T05:16:56;98002.80;;;14.34;61.35
71996;BME280;59862;47.732;7.346;2023-05-29T05:19:23;97998.75;;;14.40;61.55
71996;BME280;59862;47.732;7.346;2023-05-29T05:21:51;98006.05;;;14.47;61.80
71996;BME280;59862;47.732;7.346;2023-05-29T05:24:18;98003.31;;;14.53;61.16
71996;BME280;59862;47.732;7.346;2023-05-29T05:26:46;97999.38;;;14.62;60.63
71996;BME280;59862;47.732;7.346;2023-05-29T05:29:14;98001.96;;;14.66;61.19
71996;BME280;59862;47.732;7.346;2023-05-29T05:31:42;98005.72;;;14.65;61.32
71996;BME280;59862;47.732;7.346;2023-05-29T05:34:09;98006.11;;;14.75;61.63
71996;BME280;59862;47.732;7.346;2023-05-29T05:36:36;98009.32;;;14.81;61.05
71996;BME280;59862;47.732;7.346;2023-05-29T05:39:04;98012.34;;;14.82;60.25
71996;BME280;59862;47.732;7.346;2023-05-29T05:41:32;98013.80;;;14.85;59.62
71996;BME280;59862;47.732;7.346;2023-05-29T05:44:00;97955.16;;;14.37;60.23
71996;BME280;59862;47.732;7.346;2023-05-29T05:46:27;98016.00;;;14.79;60.46
71996;BME280;59862;47.732;7.346;2023-05-29T05:48:54;98017.97;;;14.87;59.82
71996;BME280;59862;47.732;7.346;2023-05-29T05:51:25;98023.48;;;14.83;59.86
71996;BME280;59862;47.732;7.346;2023-05-29T05:53:53;98020.56;;;14.85;59.78
71996;BME280;59862;47.732;7.346;2023-05-29T05:56:21;98019.22;;;14.78;60.45
71996;BME280;59862;47.732;7.346;2023-05-29T05:58:48;98023.27;;;14.78;59.91
71996;BME280;59862;47.732;7.346;2023-05-29T06:01:16;98019.31;;;14.87;59.86
71996;BME280;59862;47.732;7.346;2023-05-29T06:03:45;98015.88;;;14.89;59.48
71996;BME280;59862;47.732;7.346;2023-05-29T06:06:12;98017.95;;;14.94;59.38
71996;BME280;59862;47.732;7.346;2023-05-29T06:08:40;98021.89;;;14.98;59.22
71996;BME280;59862;47.732;7.346;2023-05-29T06:11:07;98023.88;;;14.93;59.66
71996;BME280;59862;47.732;7.346;2023-05-29T06:13:35;98021.55;;;15.03;59.83
71996;BME280;59862;47.732;7.346;2023-05-29T06:16:03;98020.89;;;15.21;59.40
71996;BME280;59862;47.732;7.346;2023-05-29T06:18:30;98023.19;;;15.24;58.96
71996;BME280;59862;47.732;7.346;2023-05-29T06:20:58;98025.63;;;15.39;58.80
71996;BME280;59862;47.732;7.346;2023-05-29T06:23:26;98026.45;;;15.52;59.17
71996;BME280;59862;47.732;7.346;2023-05-29T06:25:54;98028.89;;;15.67;58.06
71996;BME280;59862;47.732;7.346;2023-05-29T06:28:21;98031.92;;;15.83;59.12
71996;BME280;59862;47.732;7.346;2023-05-29T06:30:49;98038.42;;;15.98;57.71
71996;BME280;59862;47.732;7.346;2023-05-29T06:33:17;98038.45;;;16.07;57.02
71996;BME280;59862;47.732;7.346;2023-05-29T06:35:46;98038.45;;;16.07;56.91
71996;BME280;59862;47.732;7.346;2023-05-29T06:38:14;98045.13;;;16.11;56.32
71996;BME280;59862;47.732;7.346;2023-05-29T06:40:41;98046.02;;;16.14;56.18
71996;BME280;59862;47.732;7.346;2023-05-29T06:43:10;98037.72;;;16.25;56.31
71996;BME280;59862;47.732;7.346;2023-05-29T06:45:38;98041.74;;;16.31;55.47
71996;BME280;59862;47.732;7.346;2023-05-29T06:48:06;98046.32;;;16.46;55.41
71996;BME280;59862;47.732;7.346;2023-05-29T06:50:34;98048.22;;;16.61;54.98
71996;BME280;59862;47.732;7.346;2023-05-29T06:53:01;98047.93;;;16.60;54.54
71996;BME280;59862;47.732;7.346;2023-05-29T06:55:29;98043.55;;;16.59;54.88
71996;BME280;59862;47.732;7.346;2023-05-29T06:57:56;98046.47;;;16.74;53.76
71996;BME280;59862;47.732;7.346;2023-05-29T07:00:24;98046.30;;;16.93;53.94
71996;BME280;59862;47.732;7.346;2023-05-29T07:02:51;98049.87;;;17.12;53.89
71996;BME280;59862;47.732;7.346;2023-05-29T07:05:19;98051.46;;;17.28;53.52
71996;BME280;59862;47.732;7.346;2023-05-29T07:07:46;98046.77;;;17.51;53.33
71996;BME280;59862;47.732;7.346;2023-05-29T07:10:13;98051.30;;;17.66;53.38
71996;BME280;59862;47.732;7.346;2023-05-29T07:12:41;98052.13;;;17.67;51.56
71996;BME280;59862;47.732;7.346;2023-05-29T07:15:09;98048.89;;;17.58;52.13
71996;BME280;59862;47.732;7.346;2023-05-29T07:17:36;98059.72;;;17.76;51.91
71996;BME280;59862;47.732;7.346;2023-05-29T07:20:05;98055.88;;;17.93;51.84
71996;BME280;59862;47.732;7.346;2023-05-29T07:22:34;98048.75;;;18.10;51.41
71996;BME280;59862;47.732;7.346;2023-05-29T07:25:02;98051.39;;;18.07;50.56
71996;BME280;59862;47.732;7.346;2023-05-29T07:27:30;98051.45;;;18.19;50.89
71996;BME280;59862;47.732;7.346;2023-05-29T07:29:57;98054.62;;;18.37;50.29
71996;BME280;59862;47.732;7.346;2023-05-29T07:32:25;98051.28;;;18.44;49.49
71996;BME280;59862;47.732;7.346;2023-05-29T07:34:52;98047.17;;;18.62;49.50
71996;BME280;59862;47.732;7.346;2023-05-29T07:37:21;98050.91;;;18.70;48.97
71996;BME280;59862;47.732;7.346;2023-05-29T07:39:49;98049.02;;;18.82;48.78
71996;BME280;59862;47.732;7.346;2023-05-29T07:42:16;98054.59;;;18.87;47.57
71996;BME280;59862;47.732;7.346;2023-05-29T07:44:45;98060.62;;;18.89;47.87
71996;BME280;59862;47.732;7.346;2023-05-29T07:47:12;98051.78;;;19.05;49.16
71996;BME280;59862;47.732;7.346;2023-05-29T07:49:39;98057.87;;;19.33;47.74
71996;BME280;59862;47.732;7.346;2023-05-29T07:52:07;98055.40;;;19.31;46.88
71996;BME280;59862;47.732;7.346;2023-05-29T07:54:34;98062.66;;;19.51;47.02
71996;BME280;59862;47.732;7.346;2023-05-29T07:57:02;98066.30;;;19.68;46.21
71996;BME280;59862;47.732;7.346;2023-05-29T07:59:30;98073.30;;;19.64;46.03
71996;BME280;59862;47.732;7.346;2023-05-29T08:01:57;98069.92;;;19.72;45.63
71996;BME280;59862;47.732;7.346;2023-05-29T08:04:25;98069.97;;;19.86;45.72
71996;BME280;59862;47.732;7.346;2023-05-29T08:06:52;98064.47;;;19.97;46.18
71996;BME280;59862;47.732;7.346;2023-05-29T08:09:20;98061.47;;;20.22;46.11
71996;BME280;59862;47.732;7.346;2023-05-29T08:11:48;98060.57;;;20.47;45.29
71996;BME280;59862;47.732;7.346;2023-05-29T08:14:15;98056.70;;;20.74;43.52
71996;BME280;59862;47.732;7.346;2023-05-29T08:16:43;98055.28;;;20.88;44.74
71996;BME280;59862;47.732;7.346;2023-05-29T08:19:10;98058.16;;;20.95;43.31
71996;BME280;59862;47.732;7.346;2023-05-29T08:21:38;98055.00;;;21.18;43.35
71996;BME280;59862;47.732;7.346;2023-05-29T08:24:06;98060.33;;;21.27;42.82
71996;BME280;59862;47.732;7.346;2023-05-29T08:26:35;98051.98;;;21.36;42.25
71996;BME280;59862;47.732;7.346;2023-05-29T08:29:02;98049.55;;;21.56;42.80
71996;BME280;59862;47.732;7.346;2023-05-29T08:31:30;98061.52;;;21.71;41.42
71996;BME280;59862;47.732;7.346;2023-05-29T08:33:58;98061.45;;;21.85;41.26
71996;BME280;59862;47.732;7.346;2023-05-29T08:36:26;98057.41;;;22.12;41.58
71996;BME280;59862;47.732;7.346;2023-05-29T08:38:53;98055.28;;;22.41;40.86
71996;BME280;59862;47.732;7.346;2023-05-29T08:41:25;98047.14;;;22.73;40.09
71996;BME280;59862;47.732;7.346;2023-05-29T08:43:53;98057.14;;;22.59;39.59
71996;BME280;59862;47.732;7.346;2023-05-29T08:46:22;98049.31;;;22.71;39.63
71996;BME280;59862;47.732;7.346;2023-05-29T08:48:52;98060.45;;;22.40;40.06
71996;BME280;59862;47.732;7.346;2023-05-29T08:51:21;98050.53;;;22.58;39.21
71996;BME280;59862;47.732;7.346;2023-05-29T08:53:52;98054.13;;;22.61;40.49
71996;BME280;59862;47.732;7.346;2023-05-29T08:56:19;98049.08;;;22.75;40.32
71996;BME280;59862;47.732;7.346;2023-05-29T08:58:49;98049.87;;;23.04;39.37
71996;BME280;59862;47.732;7.346;2023-05-29T09:01:20;98051.81;;;23.38;38.47
71996;BME280;59862;47.732;7.346;2023-05-29T09:03:48;98054.39;;;23.57;37.66
71996;BME280;59862;47.732;7.346;2023-05-29T09:06:16;98050.58;;;23.63;38.07
71996;BME280;59862;47.732;7.346;2023-05-29T09:08:44;98057.53;;;23.81;37.77
71996;BME280;59862;47.732;7.346;2023-05-29T09:11:13;98054.99;;;23.69;37.28
71996;BME280;59862;47.732;7.346;2023-05-29T09:13:40;98055.33;;;23.75;37.13
71996;BME280;59862;47.732;7.346;2023-05-29T09:16:07;98052.20;;;23.59;38.50
71996;BME280;59862;47.732;7.346;2023-05-29T09:18:35;98058.56;;;23.65;37.84
71996;BME280;59862;47.732;7.346;2023-05-29T09:21:07;98053.72;;;23.38;38.14
71996;BME280;59862;47.732;7.346;2023-05-29T09:23:38;98057.03;;;23.42;38.95
71996;BME280;59862;47.732;7.346;2023-05-29T09:26:06;98049.30;;;23.78;38.20
71996;BME280;59862;47.732;7.346;2023-05-29T09:28:33;98051.79;;;23.80;37.55
71996;BME280;59862;47.732;7.346;2023-05-29T09:31:01;98061.16;;;23.94;37.76
71996;BME280;59862;47.732;7.346;2023-05-29T09:33:28;98059.38;;;24.15;37.25
71996;BME280;59862;47.732;7.346;2023-05-29T09:35:57;98057.45;;;24.18;37.06
71996;BME280;59862;47.732;7.346;2023-05-29T09:38:26;98058.86;;;24.30;36.90
71996;BME280;59862;47.732;7.346;2023-05-29T09:40:53;98061.95;;;24.56;36.59
71996;BME280;59862;47.732;7.346;2023-05-29T09:43:22;98054.91;;;24.88;36.96
71996;BME280;59862;47.732;7.346;2023-05-29T09:45:50;98062.79;;;24.69;36.88
71996;BME280;59862;47.732;7.346;2023-05-29T09:48:23;98054.90;;;24.98;36.55
71996;BME280;59862;47.732;7.346;2023-05-29T09:50:48;98055.15;;;25.34;36.11
71996;BME280;59862;47.732;7.346;2023-05-29T09:53:21;98059.00;;;25.26;34.49
71996;BME280;59862;47.732;7.346;2023-05-29T09:55:55;98061.73;;;25.56;35.64
71996;BME280;59862;47.732;7.346;2023-05-29T09:58:24;98058.91;;;25.84;35.06
71996;BME280;59862;47.732;7.346;2023-05-29T10:00:53;98056.78;;;25.66;33.54
71996;BME280;59862;47.732;7.346;2023-05-29T10:03:22;98051.70;;;26.62;33.22
71996;BME280;59862;47.732;7.346;2023-05-29T10:05:52;98054.12;;;27.98;31.64
71996;BME280;59862;47.732;7.346;2023-05-29T10:08:21;98056.11;;;28.80;30.45
71996;BME280;59862;47.732;7.346;2023-05-29T10:11:08;98056.94;;;29.15;28.53
71996;BME280;59862;47.732;7.346;2023-05-29T10:13:23;98057.36;;;29.54;27.79
71996;BME280;59862;47.732;7.346;2023-05-29T10:15:53;98049.65;;;29.54;28.44
71996;BME280;59862;47.732;7.346;2023-05-29T10:18:33;98046.28;;;29.70;27.72
71996;BME280;59862;47.732;7.346;2023-05-29T10:21:02;98048.32;;;31.09;27.28
71996;BME280;59862;47.732;7.346;2023-05-29T10:23:30;98052.22;;;31.19;25.96
71996;BME280;59862;47.732;7.346;2023-05-29T10:26:06;98044.11;;;31.76;25.58
71996;BME280;59862;47.732;7.346;2023-05-29T10:28:31;98045.33;;;31.72;25.24
71996;BME280;59862;47.732;7.346;2023-05-29T10:31:09;98041.17;;;32.03;25.06
71996;BME280;59862;47.732;7.346;2023-05-29T10:36:19;98029.23;;;31.41;26.22
71996;BME280;59862;47.732;7.346;2023-05-29T10:38:49;98037.80;;;31.92;25.24
71996;BME280;59862;47.732;7.346;2023-05-29T10:41:28;98035.41;;;32.19;24.13
71996;BME280;59862;47.732;7.346;2023-05-29T10:43:59;98021.88;;;31.87;24.24
71996;BME280;59862;47.732;7.346;2023-05-29T10:49:19;98028.48;;;32.56;24.32
71996;BME280;59862;47.732;7.346;2023-05-29T10:51:48;98021.81;;;32.82;24.12
71996;BME280;59862;47.732;7.346;2023-05-29T10:54:16;98020.78;;;33.47;23.29
71996;BME280;59862;47.732;7.346;2023-05-29T10:56:52;98023.00;;;32.25;24.19
71996;BME280;59862;47.732;7.346;2023-05-29T10:59:21;98021.97;;;32.77;24.32
71996;BME280;59862;47.732;7.346;2023-05-29T11:01:52;98009.29;;;32.48;23.53
71996;BME280;59862;47.732;7.346;2023-05-29T11:06:53;98015.92;;;33.18;23.91
71996;BME280;59862;47.732;7.346;2023-05-29T11:12:21;98010.84;;;32.95;23.65
71996;BME280;59862;47.732;7.346;2023-05-29T11:14:53;98020.52;;;33.06;23.03
71996;BME280;59862;47.732;7.346;2023-05-29T11:20:04;98009.38;;;32.97;23.03
71996;BME280;59862;47.732;7.346;2023-05-29T11:22:48;98005.68;;;33.50;22.96
71996;BME280;59862;47.732;7.346;2023-05-29T11:25:03;98015.69;;;33.89;22.25
71996;BME280;59862;47.732;7.346;2023-05-29T11:27:32;98014.89;;;33.00;22.88
71996;BME280;59862;47.732;7.346;2023-05-29T11:30:00;98007.02;;;33.10;22.92
71996;BME280;59862;47.732;7.346;2023-05-29T11:32:28;98006.28;;;31.69;24.14
71996;BME280;59862;47.732;7.346;2023-05-29T11:34:58;97998.05;;;31.86;24.53
71996;BME280;59862;47.732;7.346;2023-05-29T11:37:27;97992.81;;;32.04;24.13
71996;BME280;59862;47.732;7.346;2023-05-29T11:39:54;98002.69;;;32.89;22.80
71996;BME280;59862;47.732;7.346;2023-05-29T11:42:22;98006.63;;;34.01;22.85
71996;BME280;59862;47.732;7.346;2023-05-29T11:44:50;98000.65;;;33.50;22.07
71996;BME280;59862;47.732;7.346;2023-05-29T11:47:17;98008.68;;;33.75;21.77
71996;BME280;59862;47.732;7.346;2023-05-29T11:49:46;97999.35;;;34.17;21.98
71996;BME280;59862;47.732;7.346;2023-05-29T11:52:14;98005.80;;;34.44;21.31
71996;BME280;59862;47.732;7.346;2023-05-29T11:54:45;97991.80;;;32.73;22.48
71996;BME280;59862;47.732;7.346;2023-05-29T11:57:22;97994.05;;;34.09;21.46
71996;BME280;59862;47.732;7.346;2023-05-29T11:59:51;97992.17;;;35.13;21.18
71996;BME280;59862;47.732;7.346;2023-05-29T12:02:22;97999.28;;;34.96;20.52
71996;BME280;59862;47.732;7.346;2023-05-29T12:05:02;97997.61;;;34.48;21.48
71996;BME280;59862;47.732;7.346;2023-05-29T12:07:30;97994.64;;;35.15;21.20
71996;BME280;59862;47.732;7.346;2023-05-29T12:10:14;97997.91;;;34.75;20.76
71996;BME280;59862;47.732;7.346;2023-05-29T12:12:38;97984.22;;;35.68;20.06
71996;BME280;59862;47.732;7.346;2023-05-29T12:15:07;97987.03;;;36.35;19.27
71996;BME280;59862;47.732;7.346;2023-05-29T12:17:36;97975.36;;;37.31;19.10
71996;BME280;59862;47.732;7.346;2023-05-29T12:20:04;97991.72;;;36.49;18.72
71996;BME280;59862;47.732;7.346;2023-05-29T12:22:35;97985.25;;;36.73;19.52
71996;BME280;59862;47.732;7.346;2023-05-29T12:25:07;97990.98;;;35.92;20.17
71996;BME280;59862;47.732;7.346;2023-05-29T12:27:42;97979.27;;;35.47;20.52
71996;BME280;59862;47.732;7.346;2023-05-29T12:30:14;97983.32;;;36.31;19.56
71996;BME280;59862;47.732;7.346;2023-05-29T12:32:45;97983.10;;;36.30;19.08
71996;BME280;59862;47.732;7.346;2023-05-29T12:37:56;97982.88;;;36.47;19.19
71996;BME280;59862;47.732;7.346;2023-05-29T12:40:29;97977.14;;;36.56;19.46
71996;BME280;59862;47.732;7.346;2023-05-29T12:43:09;97972.16;;;36.25;19.31
71996;BME280;59862;47.732;7.346;2023-05-29T12:45:36;97988.70;;;35.16;19.77
71996;BME280;59862;47.732;7.346;2023-05-29T12:48:06;97973.55;;;35.05;20.38
71996;BME280;59862;47.732;7.346;2023-05-29T12:50:38;97973.66;;;34.26;20.61
71996;BME280;59862;47.732;7.346;2023-05-29T12:53:13;97976.73;;;34.95;19.90
71996;BME280;59862;47.732;7.346;2023-05-29T12:55:43;97977.84;;;34.82;20.33
71996;BME280;59862;47.732;7.346;2023-05-29T12:58:13;97973.77;;;35.84;19.38
71996;BME280;59862;47.732;7.346;2023-05-29T13:00:43;97967.05;;;35.97;19.18
71996;BME280;59862;47.732;7.346;2023-05-29T13:03:12;97970.62;;;36.45;18.99
71996;BME280;59862;47.732;7.346;2023-05-29T13:05:40;97970.78;;;37.16;18.95
71996;BME280;59862;47.732;7.346;2023-05-29T13:08:08;97976.86;;;37.93;17.26
71996;BME280;59862;47.732;7.346;2023-05-29T13:10:36;97972.98;;;36.83;17.57
71996;BME280;59862;47.732;7.346;2023-05-29T13:13:03;97961.67;;;35.98;18.66
71996;BME280;59862;47.732;7.346;2023-05-29T13:15:31;97964.47;;;36.86;18.48
71996;BME280;59862;47.732;7.346;2023-05-29T13:18:00;97961.45;;;37.12;17.76
71996;BME280;59862;47.732;7.346;2023-05-29T13:20:27;97959.30;;;37.21;18.16
71996;BME280;59862;47.732;7.346;2023-05-29T13:22:56;97958.17;;;36.49;18.31
71996;BME280;59862;47.732;7.346;2023-05-29T13:25:24;97958.41;;;36.44;18.78
71996;BME280;59862;47.732;7.346;2023-05-29T13:27:52;97956.44;;;36.20;18.54